Airfield :
LOGIN :

Register | Disclaimer

   EN    FR    IT 

 










Legend :    VFR   Marginal VFR   IFR   Intensive IFR   Very Intensive IFR
Visi :
Ceiling :
>= 8 km
>= 3000ft
5 to 8 km
1000 to 3000 ft
1500m to 5 km
500 to 1000 ft
800 to 1500m
200 to 500 ft
< 800m
< 200 ft
Symbols :   Thunderstorms  Fog  Heavy snow  Heavy precipitations  Wind > 20 kt
SIGMETs :     Misc.  Thunderstorms  Icing  Turbulence  Mountain Waves  Volcanic Ashes






- Airport Elevation : 1768 ft


LEHC - Huesca Pirineos

CURRENT METAR :
  • 282130Z AUTO 11001KT CAVOK 05/M03 Q1018

EXPIRED METARs :
  • 282100Z AUTO VRB06KT CAVOK 06/M02 Q1017
  • 282030Z AUTO 26010KT CAVOK 07/M02 Q1017
  • 282000Z AUTO 25010KT CAVOK 06/M02 Q1017
  • 281930Z AUTO 26010KT CAVOK 07/M02 Q1017
  • 281900Z AUTO 27010KT CAVOK 08/M04 Q1017
  • 281830Z AUTO 30010KT CAVOK 09/M03 Q1017
  • 281800Z AUTO 27012KT CAVOK 09/M03 Q1017
  • 281730Z AUTO 27011KT CAVOK 11/M03 Q1017
  • 281700Z AUTO 27013KT 240V300 CAVOK 12/M03 Q1016
  • 281630Z AUTO 27012KT 240V300 CAVOK 14/M03 Q1016

TAF TAF LEHC
Valid from the 28 at 15:00 until the 29 at 15:00 UTC


281400Z 2815/2915 29015KT CAVOK TX17/2914Z TNM01/2906Z
BECMG 2817/2820 VRB04KT
PROB30
TEMPO 2902/2907 4000 BR
BECMG 2910/2913 29015KT



MET'MAP, your aeronautical weather chart ! - Copyright ORBIFLY December 2007 - Disclaimer

ORBIFLY MET'MAP TEAM :

Programming & Development : Alexandra Zaïnal
Original concept : Baudouin d'Aumeries
Technical & hardware support : Manuel Goepfert
Assistance : Marc-Olivier Méhu




SOURCES & CREDITS :

   NOAA